| time (UTC) | temp C | wind direction | speed KPH | gust KPH | rain 1hr cm | rain 24hr cm | rain mn cm | humidity % | barometer mb |
| 20260906010329 | 13 | 190 | 11.3 | 0.0 | 0.00 | 0.00 | 0.00 | 82 | 1021.0 |
| 20260906004947 | 13 | 200 | 11.3 | 0.0 | 0.00 | 0.00 | 0.00 | 82 | 1020.0 |
| 20260906003457 | 13 | 200 | 11.3 | 0.0 | 0.00 | 0.00 | 0.00 | 82 | 1020.0 |
| 20260906001947 | 15 | 190 | 8.0 | 0.0 | 0.00 | 0.00 | 0.00 | 77 | 1020.0 |
| 20260906000437 | 15 | 190 | 8.0 | 0.0 | 0.00 | 0.00 | 0.00 | 77 | 1020.0 |
| 20260905234839 | 16 | 250 | 11.3 | 0.0 | 0.00 | 0.00 | 0.00 | 72 | 1020.0 |
| 20260905233329 | 16 | 250 | 11.3 | 0.0 | 0.00 | 0.00 | 0.00 | 72 | 1020.0 |
| 20260905231947 | 15 | 210 | 11.3 | 0.0 | 0.00 | 0.00 | 0.00 | 82 | 1020.0 |
| 20260905230401 | 15 | 210 | 11.3 | 0.0 | 0.00 | 0.00 | 0.00 | 82 | 1020.0 |
| 20260905224948 | 15 | 180 | 9.7 | 0.0 | 0.00 | 0.00 | 0.00 | 82 | 1020.0 |
| 20260905223343 | 15 | 180 | 9.7 | 0.0 | 0.00 | 0.00 | 0.00 | 82 | 1020.0 |
| 20260905221932 | 16 | 210 | 11.3 | 0.0 | 0.00 | 0.00 | 0.00 | 83 | 1020.0 |
| 20260905220447 | 16 | 210 | 11.3 | 0.0 | 0.00 | 0.00 | 0.00 | 83 | 1020.0 |
| 20260905214946 | 16 | 210 | 12.9 | 0.0 | 0.00 | 0.00 | 0.00 | 83 | 1020.0 |
| 20260905213329 | 16 | 210 | 12.9 | 0.0 | 0.00 | 0.00 | 0.00 | 83 | 1020.0 |
| 20260905211829 | 17 | 200 | 14.5 | 0.0 | 0.00 | 0.00 | 0.00 | 77 | 1020.0 |
| 20260905210329 | 17 | 200 | 14.5 | 0.0 | 0.00 | 0.00 | 0.00 | 77 | 1020.0 |
| 20260905204840 | 17 | 200 | 12.9 | 0.0 | 0.00 | 0.00 | 0.00 | 77 | 1019.0 |
| 20260905203329 | 17 | 200 | 12.9 | 0.0 | 0.00 | 0.00 | 0.00 | 77 | 1019.0 |
| 20260905201829 | 17 | 190 | 11.3 | 0.0 | 0.00 | 0.00 | 0.00 | 83 | 1019.0 |
| 20260905200447 | 17 | 190 | 11.3 | 0.0 | 0.00 | 0.00 | 0.00 | 83 | 1019.0 |
| 20260905194938 | 17 | 210 | 14.5 | 0.0 | 0.00 | 0.00 | 0.00 | 78 | 1019.0 |
| 20260905193330 | 17 | 210 | 14.5 | 0.0 | 0.00 | 0.00 | 0.00 | 78 | 1019.0 |
| 20260905191858 | 18 | 200 | 16.1 | 0.0 | 0.00 | 0.00 | 0.00 | 73 | 1019.0 |
| 20260905190330 | 18 | 200 | 16.1 | 0.0 | 0.00 | 0.00 | 0.00 | 73 | 1019.0 |
| 20260905184827 | 18 | 190 | 12.9 | 0.0 | 0.00 | 0.00 | 0.00 | 73 | 1018.0 |
| 20260905183334 | 18 | 190 | 12.9 | 0.0 | 0.00 | 0.00 | 0.00 | 73 | 1018.0 |
| 20260905181826 | 21 | 220 | 12.9 | 0.0 | 0.00 | 0.00 | 0.00 | 60 | 1018.0 |
| 20260905180326 | 21 | 220 | 12.9 | 0.0 | 0.00 | 0.00 | 0.00 | 60 | 1018.0 |
| 20260905174826 | 21 | 250 | 4.8 | 0.0 | 0.00 | 0.00 | 0.00 | 60 | 1017.0 |
| 20260905173329 | 21 | 250 | 4.8 | 0.0 | 0.00 | 0.00 | 0.00 | 60 | 1017.0 |
| 20260905171837 | 21 | 280 | 12.9 | 0.0 | 0.00 | 0.00 | 0.00 | 60 | 1017.0 |
| 20260905170329 | 21 | 280 | 12.9 | 0.0 | 0.00 | 0.00 | 0.00 | 60 | 1017.0 |
| 20260905164829 | 22 | 290 | 16.1 | 0.0 | 0.00 | 0.00 | 0.00 | 57 | 1017.0 |
| 20260905163330 | 22 | 290 | 16.1 | 0.0 | 0.00 | 0.00 | 0.00 | 57 | 1017.0 |
| 20260905161827 | 22 | 300 | 14.5 | 0.0 | 0.00 | 0.00 | 0.00 | 61 | 1017.0 |
| 20260905160330 | 22 | 300 | 14.5 | 0.0 | 0.00 | 0.00 | 0.00 | 61 | 1017.0 |
| 20260905154843 | 22 | 310 | 20.9 | 0.0 | 0.00 | 0.00 | 0.00 | 65 | 1017.0 |
| 20260905153329 | 22 | 310 | 20.9 | 0.0 | 0.00 | 0.00 | 0.00 | 65 | 1017.0 |
| 20260905151830 | 26 | 290 | 17.7 | 0.0 | 0.00 | 0.00 | 0.00 | 45 | 1016.0 |
| 20260905150330 | 26 | 290 | 17.7 | 0.0 | 0.00 | 0.00 | 0.00 | 45 | 1016.0 |
| 20260905144826 | 27 | 280 | 14.5 | 0.0 | 0.00 | 0.00 | 0.00 | 37 | 1016.0 |
| 20260905143329 | 27 | 280 | 14.5 | 0.0 | 0.00 | 0.00 | 0.00 | 37 | 1016.0 |
| 20260905141827 | 27 | 280 | 9.7 | 0.0 | 0.00 | 0.00 | 0.00 | 37 | 1016.0 |
| 20260905140326 | 27 | 280 | 9.7 | 0.0 | 0.00 | 0.00 | 0.00 | 37 | 1016.0 |
| 20260905134945 | 26 | 40 | 4.8 | 0.0 | 0.00 | 0.00 | 0.00 | 42 | 1016.0 |
| 20260905133330 | 26 | 40 | 4.8 | 0.0 | 0.00 | 0.00 | 0.00 | 42 | 1016.0 |
| 20260905131832 | 26 | 40 | 11.3 | 0.0 | 0.00 | 0.00 | 0.00 | 42 | 1016.0 |
| 20260905130351 | 26 | 40 | 11.3 | 0.0 | 0.00 | 0.00 | 0.00 | 42 | 1016.0 |
| 20260905124827 | 27 | 350 | 25.7 | 0.0 | 0.00 | 0.00 | 0.00 | 39 | 1017.0 |
| 20260905123330 | 27 | 350 | 25.7 | 0.0 | 0.00 | 0.00 | 0.00 | 39 | 1017.0 |
| 20260905121857 | 28 | 360 | 20.9 | 0.0 | 0.00 | 0.00 | 0.00 | 37 | 1016.0 |
| 20260905120330 | 28 | 360 | 20.9 | 0.0 | 0.00 | 0.00 | 0.00 | 37 | 1016.0 |
| 20260905114830 | 28 | 320 | 27.4 | 0.0 | 0.00 | 0.00 | 0.00 | 37 | 1016.0 |
| 20260905113329 | 28 | 320 | 27.4 | 0.0 | 0.00 | 0.00 | 0.00 | 37 | 1016.0 |
| 20260905111848 | 28 | 340 | 29.0 | 0.0 | 0.00 | 0.00 | 0.00 | 37 | 1016.0 |
| 20260905110329 | 28 | 340 | 29.0 | 0.0 | 0.00 | 0.00 | 0.00 | 37 | 1016.0 |
| 20260905104830 | 31 | 320 | 25.7 | 0.0 | 0.00 | 0.00 | 0.00 | 33 | 1016.0 |
| 20260905103329 | 31 | 320 | 25.7 | 0.0 | 0.00 | 0.00 | 0.00 | 33 | 1016.0 |
| 20260905101829 | 30 | 280 | 22.5 | 0.0 | 0.00 | 0.00 | 0.00 | 33 | 1016.0 |
| 20260905100330 | 30 | 280 | 22.5 | 0.0 | 0.00 | 0.00 | 0.00 | 33 | 1016.0 |
| 20260905094947 | 31 | 230 | 24.1 | 0.0 | 0.00 | 0.00 | 0.00 | 31 | 1015.0 |
| 20260905093329 | 31 | 230 | 24.1 | 0.0 | 0.00 | 0.00 | 0.00 | 31 | 1015.0 |
| 20260905091829 | 30 | 230 | 25.7 | 0.0 | 0.00 | 0.00 | 0.00 | 33 | 1015.0 |
| 20260905090329 | 30 | 230 | 25.7 | 0.0 | 0.00 | 0.00 | 0.00 | 33 | 1015.0 |
| 20260905084829 | 30 | 220 | 29.0 | 0.0 | 0.00 | 0.00 | 0.00 | 31 | 1015.0 |
| 20260905083329 | 30 | 220 | 29.0 | 0.0 | 0.00 | 0.00 | 0.00 | 31 | 1015.0 |
| 20260905081829 | 28 | 220 | 33.8 | 0.0 | 0.00 | 0.00 | 0.00 | 33 | 1015.0 |
| 20260905080330 | 28 | 220 | 33.8 | 0.0 | 0.00 | 0.00 | 0.00 | 33 | 1015.0 |
| 20260905074829 | 27 | 210 | 35.4 | 0.0 | 0.00 | 0.00 | 0.00 | 35 | 1014.0 |
| 20260905073338 | 27 | 210 | 35.4 | 0.0 | 0.00 | 0.00 | 0.00 | 35 | 1014.0 |
| 20260905071830 | 27 | 210 | 35.4 | 0.0 | 0.00 | 0.00 | 0.00 | 35 | 1014.0 |
| 20260905070329 | 27 | 210 | 35.4 | 0.0 | 0.00 | 0.00 | 0.00 | 35 | 1014.0 |
| 20260905064830 | 27 | 200 | 37.0 | 0.0 | 0.00 | 0.00 | 0.00 | 37 | 1014.0 |
| 20260905063330 | 27 | 200 | 37.0 | 0.0 | 0.00 | 0.00 | 0.00 | 37 | 1014.0 |
| 20260905061830 | 26 | 200 | 35.4 | 0.0 | 0.00 | 0.00 | 0.00 | 39 | 1014.0 |
| 20260905060330 | 26 | 200 | 35.4 | 0.0 | 0.00 | 0.00 | 0.00 | 39 | 1014.0 |
| 20260905054830 | 25 | 200 | 29.0 | 0.0 | 0.00 | 0.00 | 0.00 | 42 | 1015.0 |
| 20260905053330 | 25 | 200 | 29.0 | 0.0 | 0.00 | 0.00 | 0.00 | 42 | 1015.0 |
| 20260905051829 | 23 | 190 | 29.0 | 0.0 | 0.00 | 0.00 | 0.00 | 44 | 1015.0 |
| 20260905050330 | 23 | 190 | 29.0 | 0.0 | 0.00 | 0.00 | 0.00 | 44 | 1015.0 |
| 20260905044830 | 23 | 190 | 27.4 | 0.0 | 0.00 | 0.00 | 0.00 | 41 | 1015.0 |
| 20260905043329 | 23 | 190 | 27.4 | 0.0 | 0.00 | 0.00 | 0.00 | 41 | 1015.0 |
| 20260905041829 | 22 | 180 | 25.7 | 0.0 | 0.00 | 0.00 | 0.00 | 47 | 1014.0 |
| 20260905040329 | 22 | 180 | 25.7 | 0.0 | 0.00 | 0.00 | 0.00 | 47 | 1014.0 |
| 20260905034830 | 22 | 180 | 24.1 | 0.0 | 0.00 | 0.00 | 0.00 | 47 | 1014.0 |
| 20260905033329 | 22 | 180 | 24.1 | 0.0 | 0.00 | 0.00 | 0.00 | 47 | 1014.0 |
| 20260905031830 | 22 | 180 | 22.5 | 0.0 | 0.00 | 0.00 | 0.00 | 47 | 1014.0 |
| 20260905030329 | 22 | 180 | 22.5 | 0.0 | 0.00 | 0.00 | 0.00 | 47 | 1014.0 |
| 20260905024842 | 22 | 180 | 22.5 | 0.0 | 0.00 | 0.00 | 0.00 | 47 | 1014.0 |
| 20260905023330 | 22 | 180 | 22.5 | 0.0 | 0.00 | 0.00 | 0.00 | 47 | 1014.0 |
| 20260905021830 | 22 | 180 | 22.5 | 0.0 | 0.00 | 0.00 | 0.00 | 47 | 1014.0 |
| 20260905020330 | 22 | 180 | 22.5 | 0.0 | 0.00 | 0.00 | 0.00 | 47 | 1014.0 |
| 20260905014830 | 22 | 180 | 20.9 | 0.0 | 0.00 | 0.00 | 0.00 | 47 | 1014.0 |
| 20260905013329 | 22 | 180 | 20.9 | 0.0 | 0.00 | 0.00 | 0.00 | 47 | 1014.0 |
| 20260905011830 | 22 | 180 | 17.7 | 0.0 | 0.00 | 0.00 | 0.00 | 47 | 1015.0 |